createdAt,value
2022-07-30T00:01:15.659Z,16.15
2022-07-30T00:03:42.224Z,17.70
2022-07-30T00:06:08.789Z,13.80
2022-07-30T00:08:35.302Z,14.57
2022-07-30T00:11:01.830Z,12.95
2022-07-30T00:13:28.506Z,14.80
2022-07-30T00:15:55.067Z,14.05
2022-07-30T00:18:21.817Z,17.95
2022-07-30T00:20:49.372Z,13.90
2022-07-30T00:23:17.243Z,13.77
2022-07-30T00:25:44.347Z,16.90
2022-07-30T00:28:11.081Z,17.77
2022-07-30T00:30:38.846Z,13.10
2022-07-30T00:33:05.572Z,12.48
2022-07-30T00:35:34.907Z,13.65
2022-07-30T00:38:01.564Z,17.13
2022-07-30T00:40:28.586Z,17.13
2022-07-30T00:42:55.179Z,18.73
2022-07-30T00:45:21.989Z,22.90
2022-07-30T00:47:48.564Z,20.95
2022-07-30T00:50:15.632Z,25.55
2022-07-30T00:52:43.138Z,20.58
2022-07-30T00:55:12.952Z,20.60
2022-07-30T00:57:39.992Z,18.30
2022-07-30T01:00:10.333Z,24.25
2022-07-30T01:02:37.017Z,22.25
2022-07-30T01:05:04.210Z,14.27
2022-07-30T01:07:30.783Z,23.45
2022-07-30T01:09:57.343Z,25.38
2022-07-30T01:12:27.253Z,21.85
2022-07-30T01:14:56.902Z,16.17
2022-07-30T01:17:23.637Z,19.92
2022-07-30T01:19:52.552Z,14.25
2022-07-30T01:22:31.155Z,22.20
2022-07-30T01:25:03.533Z,13.88
2022-07-30T01:27:43.098Z,21.70
2022-07-30T01:30:11.306Z,35.58
2022-07-30T01:32:42.960Z,14.60
2022-07-30T01:35:10.956Z,22.23
2022-07-30T01:37:38.972Z,23.70
2022-07-30T01:40:06.576Z,17.00
2022-07-30T01:42:35.084Z,28.75
2022-07-30T01:45:03.115Z,14.57
2022-07-30T01:47:31.941Z,18.45
2022-07-30T01:49:59.995Z,22.00
2022-07-30T01:52:30.957Z,21.52
2022-07-30T01:55:00.444Z,21.02
2022-07-30T01:57:27.152Z,24.98
2022-07-30T01:59:59.173Z,20.73
2022-07-30T02:02:25.752Z,16.90
2022-07-30T02:04:52.423Z,18.25
2022-07-30T02:07:31.434Z,20.42
2022-07-30T02:10:11.488Z,16.00
2022-07-30T02:12:43.452Z,15.70
2022-07-30T02:15:45.422Z,13.27
2022-07-30T02:18:23.840Z,15.77
2022-07-30T02:21:19.465Z,10.60
2022-07-30T02:23:48.793Z,14.15
2022-07-30T02:26:21.015Z,13.90
2022-07-30T02:28:51.930Z,12.70
2022-07-30T02:31:22.741Z,10.25
2022-07-30T02:33:53.473Z,9.32
2022-07-30T02:36:20.251Z,14.03
2022-07-30T02:38:50.710Z,12.80
2022-07-30T02:41:20.544Z,11.20
2022-07-30T02:43:48.875Z,10.32
2022-07-30T02:46:18.362Z,9.38
2022-07-30T02:48:47.268Z,8.90
2022-07-30T02:51:17.526Z,11.00
2022-07-30T02:53:46.364Z,10.48
2022-07-30T02:56:15.976Z,9.63
2022-07-30T02:58:44.751Z,8.98
2022-07-30T03:01:13.455Z,10.82
2022-07-30T03:03:43.004Z,9.60
2022-07-30T03:06:10.148Z,10.48
2022-07-30T03:08:37.375Z,9.43
2022-07-30T03:11:05.590Z,11.98
2022-07-30T03:13:32.235Z,10.35
2022-07-30T03:15:59.516Z,11.15
2022-07-30T03:18:32.850Z,9.10
2022-07-30T03:21:00.685Z,7.45
2022-07-30T03:23:28.238Z,9.80
2022-07-30T03:25:58.069Z,13.00
2022-07-30T03:28:25.614Z,11.18
2022-07-30T03:30:54.077Z,9.68
2022-07-30T03:33:22.164Z,9.20
2022-07-30T03:35:49.769Z,8.63
2022-07-30T03:38:17.604Z,11.65
2022-07-30T03:40:45.517Z,9.70
2022-07-30T03:43:32.108Z,11.32
2022-07-30T03:46:02.827Z,10.20
2022-07-30T03:48:30.345Z,9.30
2022-07-30T03:50:57.570Z,9.25
2022-07-30T03:53:25.247Z,7.10
2022-07-30T03:55:52.990Z,7.88
2022-07-30T03:58:19.683Z,10.52
2022-07-30T04:00:50.646Z,11.18
2022-07-30T04:03:27.659Z,8.45
2022-07-30T04:05:54.758Z,8.20
2022-07-30T04:08:21.474Z,9.00
2022-07-30T04:10:48.995Z,8.15
2022-07-30T04:13:15.884Z,8.88
2022-07-30T04:16:38.922Z,7.55
2022-07-30T04:18:56.191Z,7.57
2022-07-30T04:21:25.461Z,7.10
2022-07-30T04:24:03.639Z,8.63
2022-07-30T04:26:33.257Z,7.50
2022-07-30T04:29:01.645Z,11.23
2022-07-30T04:31:28.979Z,10.48
2022-07-30T04:33:55.625Z,7.55
2022-07-30T04:36:33.430Z,10.27
2022-07-30T04:39:00.483Z,10.80
2022-07-30T04:41:27.299Z,13.18
2022-07-30T04:43:53.905Z,8.05
2022-07-30T04:46:20.611Z,12.40
2022-07-30T04:48:51.889Z,8.95
2022-07-30T04:51:25.468Z,14.80
2022-07-30T04:53:54.814Z,10.00
2022-07-30T04:56:22.775Z,10.70
2022-07-30T04:58:50.609Z,13.77
2022-07-30T05:01:23.269Z,11.10
2022-07-30T05:04:02.340Z,13.65
2022-07-30T05:06:30.425Z,14.68
2022-07-30T05:08:57.845Z,11.18
2022-07-30T05:11:24.595Z,10.25
2022-07-30T05:13:51.246Z,13.02
2022-07-30T05:16:17.933Z,11.50
2022-07-30T05:18:45.408Z,13.10
2022-07-30T05:21:11.932Z,12.07
2022-07-30T05:23:38.471Z,13.70
2022-07-30T05:26:05.108Z,13.20
2022-07-30T05:28:31.833Z,13.95
2022-07-30T05:30:59.114Z,13.25
2022-07-30T05:33:41.375Z,14.38
2022-07-30T05:36:09.508Z,12.90
2022-07-30T05:38:36.130Z,12.65
2022-07-30T05:41:02.872Z,13.45
2022-07-30T05:43:29.439Z,14.15
2022-07-30T05:45:57.415Z,16.27
2022-07-30T05:48:24.012Z,13.90
2022-07-30T05:50:50.548Z,12.70
2022-07-30T05:53:17.073Z,13.93
2022-07-30T05:55:43.632Z,16.58
2022-07-30T05:58:10.183Z,13.95
2022-07-30T06:00:36.705Z,17.35
2022-07-30T06:03:03.643Z,12.88
2022-07-30T06:05:32.504Z,11.98
2022-07-30T06:07:59.035Z,13.32
2022-07-30T06:10:25.607Z,16.50
2022-07-30T06:12:52.154Z,12.10
2022-07-30T06:15:25.800Z,12.63
2022-07-30T06:17:57.187Z,11.10
2022-07-30T06:20:28.490Z,11.32
2022-07-30T06:22:55.077Z,11.48
2022-07-30T06:25:21.669Z,10.23
2022-07-30T06:27:48.148Z,13.48
2022-07-30T06:30:14.802Z,12.40
2022-07-30T06:32:43.648Z,13.85
2022-07-30T06:35:10.317Z,12.27
2022-07-30T06:37:58.778Z,13.10
2022-07-30T06:40:23.460Z,17.95
2022-07-30T06:42:50.031Z,11.02
2022-07-30T06:45:16.844Z,15.00
2022-07-30T06:47:43.409Z,14.48
2022-07-30T06:50:10.037Z,16.40
2022-07-30T06:52:38.421Z,16.38
2022-07-30T06:55:05.402Z,11.60
2022-07-30T06:57:32.076Z,10.27
2022-07-30T07:00:05.960Z,15.15
2022-07-30T07:02:32.485Z,13.20
2022-07-30T07:04:59.015Z,9.68
2022-07-30T07:07:40.767Z,12.95
2022-07-30T07:10:09.188Z,9.10
2022-07-30T07:12:35.755Z,11.43
2022-07-30T07:15:02.466Z,10.98
2022-07-30T07:17:28.992Z,12.63
2022-07-30T07:19:59.829Z,11.18
2022-07-30T07:22:28.420Z,11.48
2022-07-30T07:24:54.933Z,13.27
2022-07-30T07:27:21.688Z,16.35
2022-07-30T07:30:01.891Z,12.70
2022-07-30T07:32:33.663Z,12.25
2022-07-30T07:35:00.239Z,14.77
2022-07-30T07:37:27.070Z,12.15
2022-07-30T07:39:53.751Z,9.35
2022-07-30T07:42:20.340Z,12.27
2022-07-30T07:44:46.839Z,15.75
2022-07-30T07:47:13.342Z,9.40
2022-07-30T07:49:40.017Z,9.90
2022-07-30T07:52:06.535Z,12.55
2022-07-30T07:54:33.416Z,10.45
2022-07-30T07:57:03.150Z,8.38
2022-07-30T07:59:36.134Z,14.38
2022-07-30T08:02:08.051Z,9.90
2022-07-30T08:04:35.340Z,9.55
2022-07-30T08:07:02.331Z,11.63
2022-07-30T08:09:40.743Z,14.35
2022-07-30T08:12:11.696Z,12.52
2022-07-30T08:14:38.234Z,11.18
2022-07-30T08:17:05.151Z,8.48
2022-07-30T08:19:32.210Z,6.15
2022-07-30T08:21:59.746Z,7.32
2022-07-30T08:24:27.032Z,8.90
2022-07-30T08:26:53.881Z,11.43
2022-07-30T08:29:20.456Z,8.18
2022-07-30T08:31:47.036Z,7.40
2022-07-30T08:34:13.756Z,7.38
2022-07-30T08:36:40.812Z,5.82
2022-07-30T08:39:07.402Z,6.85
2022-07-30T08:41:36.343Z,5.20
2022-07-30T08:44:03.783Z,8.55
2022-07-30T08:46:32.171Z,5.88
2022-07-30T08:49:07.722Z,7.88
2022-07-30T08:51:37.701Z,4.40
2022-07-30T08:54:05.139Z,5.50
2022-07-30T08:56:33.382Z,4.90
2022-07-30T08:59:00.879Z,7.47
2022-07-30T09:01:27.735Z,7.82
2022-07-30T09:03:54.377Z,7.95
2022-07-30T09:06:20.930Z,5.05
2022-07-30T09:08:47.537Z,5.97
2022-07-30T09:11:14.195Z,4.88
2022-07-30T09:13:42.374Z,5.15
2022-07-30T09:16:22.429Z,9.07
2022-07-30T09:18:50.496Z,4.68
2022-07-30T09:21:28.436Z,3.95
2022-07-30T09:24:00.731Z,4.18
2022-07-30T09:26:27.506Z,6.47
2022-07-30T09:28:54.134Z,5.05
2022-07-30T09:31:21.817Z,4.78
2022-07-30T09:33:48.510Z,5.57
2022-07-30T09:36:17.691Z,7.05
2022-07-30T09:38:49.784Z,5.13
2022-07-30T09:41:37.843Z,3.80
2022-07-30T09:44:06.310Z,5.28
2022-07-30T09:46:51.588Z,4.40
2022-07-30T09:49:20.772Z,6.03
2022-07-30T09:51:56.101Z,8.82
2022-07-30T09:54:42.524Z,6.57
2022-07-30T09:57:26.047Z,7.28
2022-07-30T09:59:56.063Z,4.07
2022-07-30T10:02:33.348Z,4.97
2022-07-30T10:05:14.095Z,6.43
2022-07-30T10:07:58.506Z,6.30
2022-07-30T10:10:31.081Z,5.55
2022-07-30T10:13:04.756Z,8.88
2022-07-30T10:15:34.686Z,7.88
2022-07-30T10:18:06.371Z,4.63
2022-07-30T10:20:33.817Z,6.63
2022-07-30T10:23:08.298Z,6.65
2022-07-30T10:25:49.228Z,6.43
2022-07-30T10:28:22.554Z,6.95
2022-07-30T10:30:51.816Z,4.28
2022-07-30T10:33:34.670Z,4.80
2022-07-30T10:36:03.790Z,5.40
2022-07-30T10:38:34.306Z,4.30
2022-07-30T10:41:16.725Z,5.40
2022-07-30T10:43:57.926Z,7.65
2022-07-30T10:46:46.231Z,6.38
2022-07-30T10:49:19.168Z,5.20
2022-07-30T10:51:55.486Z,5.38
2022-07-30T10:54:44.675Z,4.63
2022-07-30T10:57:23.060Z,6.97
2022-07-30T11:00:04.139Z,3.95
2022-07-30T11:02:34.914Z,7.35
2022-07-30T11:05:32.060Z,11.05
2022-07-30T11:08:37.920Z,4.50
2022-07-30T11:11:59.449Z,4.70
2022-07-30T11:14:08.538Z,5.50
2022-07-30T11:16:35.164Z,4.05
2022-07-30T11:19:56.203Z,3.58
2022-07-30T11:22:27.221Z,3.95
2022-07-30T11:24:54.428Z,3.47
2022-07-30T11:27:41.918Z,5.63
2022-07-30T11:30:18.426Z,4.93
2022-07-30T11:32:45.604Z,4.43
2022-07-30T11:35:15.111Z,5.22
2022-07-30T11:38:19.629Z,4.88
2022-07-30T11:40:48.782Z,5.30
2022-07-30T11:43:19.421Z,4.63
2022-07-30T11:46:10.497Z,3.92
2022-07-30T11:48:39.671Z,7.47
2022-07-30T11:51:06.790Z,4.40
2022-07-30T11:53:33.371Z,4.55
2022-07-30T11:56:02.342Z,5.07
2022-07-30T11:58:39.767Z,5.75
2022-07-30T12:01:11.903Z,5.35
2022-07-30T12:03:45.667Z,3.47
2022-07-30T12:06:19.615Z,3.83
2022-07-30T12:08:48.418Z,4.75
2022-07-30T12:11:15.653Z,3.95
2022-07-30T12:13:46.178Z,3.05
2022-07-30T12:16:17.635Z,4.15
2022-07-30T12:18:45.138Z,3.15
2022-07-30T12:21:12.816Z,3.00
2022-07-30T12:23:39.724Z,2.92
2022-07-30T12:26:06.429Z,3.63
2022-07-30T12:28:34.829Z,3.55
2022-07-30T12:31:04.394Z,3.63
2022-07-30T12:33:31.512Z,2.95
2022-07-30T12:36:00.342Z,3.15
2022-07-30T12:38:28.291Z,3.20
2022-07-30T12:41:03.983Z,3.20
2022-07-30T12:43:51.950Z,6.22
2022-07-30T12:46:19.975Z,2.88
2022-07-30T12:49:02.098Z,4.20
2022-07-30T12:51:59.773Z,5.50
2022-07-30T12:54:27.852Z,4.50
2022-07-30T12:57:03.565Z,3.80
2022-07-30T12:59:31.477Z,3.38
2022-07-30T13:02:00.397Z,3.63
2022-07-30T13:04:27.700Z,3.95
2022-07-30T13:07:11.389Z,4.18
2022-07-30T13:09:39.896Z,3.25
2022-07-30T13:12:07.090Z,3.53
2022-07-30T13:14:33.704Z,6.60
2022-07-30T13:17:01.105Z,11.05
2022-07-30T13:19:28.210Z,4.30
2022-07-30T13:21:54.755Z,8.35
2022-07-30T13:24:21.847Z,3.05
2022-07-30T13:26:50.590Z,4.05
2022-07-30T13:29:17.847Z,7.32
2022-07-30T13:31:44.353Z,3.03
2022-07-30T13:34:12.156Z,7.63
2022-07-30T13:36:39.033Z,3.00
2022-07-30T13:39:05.513Z,2.80
2022-07-30T13:41:33.225Z,2.65
2022-07-30T13:43:59.766Z,5.10
2022-07-30T13:46:27.431Z,3.03
2022-07-30T13:48:54.948Z,2.75
2022-07-30T13:51:21.707Z,4.65
2022-07-30T13:53:48.227Z,3.40
2022-07-30T13:56:14.746Z,3.05
2022-07-30T13:58:42.582Z,2.80
2022-07-30T14:01:10.153Z,3.10
2022-07-30T14:03:49.373Z,3.67
2022-07-30T14:06:18.031Z,2.80
2022-07-30T14:08:44.569Z,4.07
2022-07-30T14:11:11.062Z,3.20
2022-07-30T14:13:38.016Z,7.57
2022-07-30T14:16:08.197Z,3.20
2022-07-30T14:18:44.755Z,2.97
2022-07-30T14:21:11.334Z,3.10
2022-07-30T14:23:37.912Z,3.17
2022-07-30T14:26:04.630Z,2.88
2022-07-30T14:28:31.154Z,4.47
2022-07-30T14:30:57.701Z,4.47
2022-07-30T14:33:24.242Z,3.03
2022-07-30T14:35:50.741Z,4.13
2022-07-30T14:38:17.261Z,2.78
2022-07-30T14:40:43.777Z,3.10
2022-07-30T14:43:10.228Z,2.97
2022-07-30T14:45:36.858Z,5.75
2022-07-30T14:48:03.559Z,3.00
2022-07-30T14:50:30.715Z,4.60
2022-07-30T14:52:57.196Z,3.53
2022-07-30T14:55:23.833Z,3.95
2022-07-30T14:57:50.323Z,3.38
2022-07-30T15:00:17.164Z,5.45
2022-07-30T15:02:44.176Z,5.10
2022-07-30T15:05:10.791Z,3.95
2022-07-30T15:07:37.444Z,3.10
2022-07-30T15:10:07.524Z,4.20
2022-07-30T15:12:34.117Z,6.53
2022-07-30T15:15:00.750Z,4.47
2022-07-30T15:17:28.419Z,3.20
2022-07-30T15:19:54.956Z,3.08
2022-07-30T15:22:21.643Z,3.78
2022-07-30T15:24:48.818Z,4.20
2022-07-30T15:27:15.468Z,3.00
2022-07-30T15:29:41.986Z,3.03
2022-07-30T15:32:08.514Z,3.10
2022-07-30T15:34:35.085Z,4.07
2022-07-30T15:37:02.917Z,2.90
2022-07-30T15:39:32.305Z,3.85
2022-07-30T15:42:00.885Z,4.05
2022-07-30T15:44:27.738Z,3.08
2022-07-30T15:46:54.970Z,4.68
2022-07-30T15:49:21.549Z,2.92
2022-07-30T15:51:51.843Z,3.88
2022-07-30T15:54:22.529Z,4.32
2022-07-30T15:56:50.556Z,4.85
2022-07-30T15:59:17.112Z,3.10
2022-07-30T16:01:44.095Z,4.97
2022-07-30T16:04:18.984Z,3.85
2022-07-30T16:06:46.429Z,8.32
2022-07-30T16:09:13.665Z,5.65
2022-07-30T16:11:41.579Z,2.63
2022-07-30T16:14:09.266Z,4.18
2022-07-30T16:16:35.829Z,5.22
2022-07-30T16:19:02.511Z,7.38
2022-07-30T16:21:29.011Z,3.20
2022-07-30T16:23:56.601Z,3.90
2022-07-30T16:26:23.183Z,3.28
2022-07-30T16:28:49.907Z,4.40
2022-07-30T16:31:17.167Z,2.60
2022-07-30T16:33:43.867Z,3.15
2022-07-30T16:36:11.078Z,2.60
2022-07-30T16:38:37.603Z,2.60
2022-07-30T16:41:04.166Z,3.05
2022-07-30T16:43:31.969Z,6.55
2022-07-30T16:45:59.461Z,2.55
2022-07-30T16:48:26.455Z,3.25
2022-07-30T16:50:53.299Z,3.05
2022-07-30T16:53:20.097Z,2.50
2022-07-30T16:55:47.118Z,2.65
2022-07-30T16:58:13.649Z,6.45
2022-07-30T17:00:40.441Z,2.13
2022-07-30T17:03:07.323Z,2.50
2022-07-30T17:05:34.260Z,1.90
2022-07-30T17:08:01.011Z,3.10
2022-07-30T17:10:27.891Z,2.40
2022-07-30T17:12:57.208Z,6.63
2022-07-30T17:15:32.115Z,5.28
2022-07-30T17:18:00.652Z,4.82
2022-07-30T17:20:27.798Z,3.72
2022-07-30T17:22:56.076Z,3.50
2022-07-30T17:25:27.520Z,3.05
2022-07-30T17:27:58.783Z,3.25
2022-07-30T17:30:26.886Z,4.50
2022-07-30T17:32:53.550Z,3.25
2022-07-30T17:35:20.524Z,3.58
2022-07-30T17:37:47.074Z,2.95
2022-07-30T17:40:28.416Z,4.72
2022-07-30T17:43:02.994Z,2.40
2022-07-30T17:45:30.724Z,3.83
2022-07-30T17:47:57.930Z,2.47
2022-07-30T17:50:24.527Z,6.28
2022-07-30T17:52:51.200Z,6.53
2022-07-30T17:55:17.735Z,2.60
2022-07-30T17:57:44.223Z,6.10
2022-07-30T18:00:11.763Z,2.63
2022-07-30T18:02:38.311Z,4.57
2022-07-30T18:05:05.286Z,2.80
2022-07-30T18:07:31.833Z,3.85
2022-07-30T18:09:58.370Z,5.60
2022-07-30T18:12:24.960Z,4.30
2022-07-30T18:14:52.018Z,6.05
2022-07-30T18:17:18.588Z,4.38
2022-07-30T18:19:45.277Z,6.18
2022-07-30T18:22:14.698Z,3.97
2022-07-30T18:24:43.757Z,5.10
2022-07-30T18:27:11.975Z,4.18
2022-07-30T18:29:38.853Z,4.50
2022-07-30T18:32:06.171Z,8.15
2022-07-30T18:34:33.149Z,9.65
2022-07-30T18:36:59.912Z,2.67
2022-07-30T18:39:26.594Z,6.40
2022-07-30T18:41:53.131Z,9.80
2022-07-30T18:44:19.804Z,3.75
2022-07-30T18:46:46.380Z,4.13
2022-07-30T18:49:35.108Z,4.22
2022-07-30T18:52:01.353Z,6.50
2022-07-30T18:54:29.408Z,5.15
2022-07-30T18:56:56.354Z,7.57
2022-07-30T18:59:23.204Z,5.82
2022-07-30T19:01:49.936Z,6.30
2022-07-30T19:04:16.483Z,5.55
2022-07-30T19:06:43.192Z,2.20
2022-07-30T19:09:17.019Z,4.63
2022-07-30T19:11:45.103Z,6.30
2022-07-30T19:14:13.156Z,2.97
2022-07-30T19:16:40.878Z,3.45
2022-07-30T19:19:07.852Z,8.75
2022-07-30T19:21:34.753Z,3.35
2022-07-30T19:24:01.798Z,8.82
2022-07-30T19:26:28.577Z,3.83
2022-07-30T19:28:55.270Z,5.13
2022-07-30T19:31:22.030Z,10.50
2022-07-30T19:33:49.304Z,7.63
2022-07-30T19:36:18.985Z,7.30
2022-07-30T19:38:45.577Z,4.30
2022-07-30T19:41:12.248Z,5.85
2022-07-30T19:43:41.023Z,4.75
2022-07-30T19:46:08.027Z,9.18
2022-07-30T19:48:37.306Z,5.35
2022-07-30T19:51:05.470Z,2.53
2022-07-30T19:53:42.720Z,2.78
2022-07-30T19:56:11.474Z,4.55
2022-07-30T19:58:38.225Z,7.43
2022-07-30T20:01:08.315Z,4.32
2022-07-30T20:03:35.664Z,7.25
2022-07-30T20:06:02.302Z,5.47
2022-07-30T20:08:29.590Z,5.90
2022-07-30T20:10:57.880Z,9.27
2022-07-30T20:13:45.370Z,8.68
2022-07-30T20:16:13.090Z,11.73
2022-07-30T20:18:40.314Z,5.53
2022-07-30T20:21:14.028Z,6.22
2022-07-30T20:23:41.600Z,7.80
2022-07-30T20:26:12.547Z,10.23
2022-07-30T20:28:40.611Z,6.72
2022-07-30T20:31:07.224Z,6.85
2022-07-30T20:33:36.154Z,4.60
2022-07-30T20:36:05.031Z,2.80
2022-07-30T20:38:33.766Z,5.22
2022-07-30T20:41:02.255Z,10.43
2022-07-30T20:43:29.168Z,8.90
2022-07-30T20:45:56.041Z,6.47
2022-07-30T20:51:11.834Z,6.10
2022-07-30T20:53:38.388Z,4.65
2022-07-30T20:56:05.062Z,8.50
2022-07-30T20:58:31.602Z,6.88
2022-07-30T21:01:00.121Z,4.78
2022-07-30T21:03:27.139Z,8.30
2022-07-30T21:05:56.285Z,6.57
2022-07-30T21:08:25.068Z,7.05
2022-07-30T21:10:53.136Z,4.60
2022-07-30T21:13:22.308Z,8.55
2022-07-30T21:16:02.443Z,8.95
2022-07-30T21:18:38.044Z,6.85
2022-07-30T21:21:06.880Z,7.18
2022-07-30T21:23:33.578Z,7.85
2022-07-30T21:26:04.780Z,6.47
2022-07-30T21:28:35.379Z,8.63
2022-07-30T21:31:03.899Z,5.55
2022-07-30T21:33:34.841Z,7.30
2022-07-30T21:36:01.396Z,6.05
2022-07-30T21:38:28.632Z,7.30
2022-07-30T21:40:57.064Z,10.40
2022-07-30T21:43:29.357Z,6.10
2022-07-30T21:48:43.967Z,7.10
2022-07-30T21:51:11.577Z,11.18
2022-07-30T21:53:44.935Z,6.57
2022-07-30T21:56:13.525Z,13.05
2022-07-30T21:58:41.168Z,12.65
2022-07-30T22:01:17.177Z,6.10
2022-07-30T22:06:40.054Z,8.15
2022-07-30T22:09:26.401Z,6.25
2022-07-30T22:12:01.237Z,5.43
2022-07-30T22:14:29.090Z,8.57
2022-07-30T22:16:55.941Z,4.55
2022-07-30T22:19:22.891Z,8.45
2022-07-30T22:24:37.247Z,5.90
2022-07-30T22:27:14.401Z,5.28
2022-07-30T22:29:43.115Z,6.85
2022-07-30T22:32:10.698Z,4.07
2022-07-30T22:34:37.604Z,10.93
2022-07-30T22:37:04.139Z,4.72
2022-07-30T22:39:32.181Z,8.63
2022-07-30T22:42:17.534Z,6.00
2022-07-30T22:44:45.931Z,4.70
2022-07-30T22:47:18.835Z,6.60
2022-07-30T22:49:56.132Z,4.72
2022-07-30T22:52:29.732Z,7.57
2022-07-30T22:55:08.466Z,3.42
2022-07-30T22:57:37.943Z,7.25
2022-07-30T23:00:11.977Z,4.90
2022-07-30T23:02:40.292Z,5.85
2022-07-30T23:05:08.651Z,5.43
2022-07-30T23:07:39.729Z,3.42
2022-07-30T23:10:17.469Z,3.13
2022-07-30T23:12:19.612Z,7.63
2022-07-30T23:12:28.645Z,6.60
2022-07-30T23:12:31.101Z,11.15
2022-07-30T23:12:31.417Z,6.07
2022-07-30T23:12:47.942Z,3.75
2022-07-30T23:15:15.038Z,4.47
2022-07-30T23:17:41.630Z,4.45
2022-07-30T23:20:11.241Z,5.15
2022-07-30T23:22:37.872Z,3.63
2022-07-30T23:25:07.153Z,6.13
2022-07-30T23:27:34.305Z,3.80
2022-07-30T23:30:00.831Z,6.55
2022-07-30T23:32:27.462Z,4.05
2022-07-30T23:34:54.031Z,4.10
2022-07-30T23:37:20.579Z,3.65
2022-07-30T23:39:47.101Z,2.92
2022-07-30T23:42:13.700Z,4.65
2022-07-30T23:44:40.268Z,4.18
2022-07-30T23:47:07.144Z,5.65
2022-07-30T23:49:33.702Z,3.40
2022-07-30T23:52:00.270Z,5.05
2022-07-30T23:54:28.802Z,7.25
2022-07-30T23:56:56.238Z,3.28
2022-07-30T23:59:36.935Z,2.80
